sensor_id;sensor_type;location;lat;lon;timestamp;pressure;altitude;pressure_sealevel;temperature;humidity
25855;BME280;13680;49.936;11.344;2023-06-14T00:00:37;96461.75;;;14.72;54.28
25855;BME280;13680;49.936;11.344;2023-06-14T00:03:06;96461.66;;;14.68;54.72
25855;BME280;13680;49.936;11.344;2023-06-14T00:05:33;96465.31;;;14.64;54.88
25855;BME280;13680;49.936;11.344;2023-06-14T00:08:03;96458.88;;;14.56;55.91
25855;BME280;13680;49.936;11.344;2023-06-14T00:10:32;96450.25;;;14.42;55.94
25855;BME280;13680;49.936;11.344;2023-06-14T00:13:00;96458.16;;;14.47;55.78
25855;BME280;13680;49.936;11.344;2023-06-14T00:15:26;96455.53;;;14.38;55.99
25855;BME280;13680;49.936;11.344;2023-06-14T00:17:51;96456.16;;;14.35;56.04
25855;BME280;13680;49.936;11.344;2023-06-14T00:20:16;96458.31;;;14.29;56.66
25855;BME280;13680;49.936;11.344;2023-06-14T00:22:42;96451.44;;;14.32;56.37
25855;BME280;13680;49.936;11.344;2023-06-14T00:25:07;96455.47;;;14.26;56.62
25855;BME280;13680;49.936;11.344;2023-06-14T00:27:33;96446.63;;;14.16;56.70
25855;BME280;13680;49.936;11.344;2023-06-14T00:29:58;96451.22;;;14.16;56.69
25855;BME280;13680;49.936;11.344;2023-06-14T00:32:23;96450.47;;;14.15;57.11
25855;BME280;13680;49.936;11.344;2023-06-14T00:34:51;96453.69;;;14.08;56.75
25855;BME280;13680;49.936;11.344;2023-06-14T00:37:16;96453.88;;;14.03;57.46
25855;BME280;13680;49.936;11.344;2023-06-14T00:39:41;96445.31;;;14.01;57.39
25855;BME280;13680;49.936;11.344;2023-06-14T00:42:07;96444.78;;;14.08;57.45
25855;BME280;13680;49.936;11.344;2023-06-14T00:44:32;96451.28;;;14.07;56.92
25855;BME280;13680;49.936;11.344;2023-06-14T00:46:57;96443.78;;;14.13;56.49
25855;BME280;13680;49.936;11.344;2023-06-14T00:49:23;96447.16;;;13.88;57.70
25855;BME280;13680;49.936;11.344;2023-06-14T00:51:49;96453.13;;;13.73;58.43
25855;BME280;13680;49.936;11.344;2023-06-14T00:54:15;96452.94;;;13.78;58.03
25855;BME280;13680;49.936;11.344;2023-06-14T00:56:42;96447.44;;;13.66;58.84
25855;BME280;13680;49.936;11.344;2023-06-14T00:59:09;96446.81;;;13.69;58.54
25855;BME280;13680;49.936;11.344;2023-06-14T01:01:36;96451.06;;;13.70;58.83
25855;BME280;13680;49.936;11.344;2023-06-14T01:04:02;96446.00;;;13.68;59.03
25855;BME280;13680;49.936;11.344;2023-06-14T01:06:41;96446.97;;;13.64;58.93
25855;BME280;13680;49.936;11.344;2023-06-14T01:09:23;96448.28;;;13.57;58.82
25855;BME280;13680;49.936;11.344;2023-06-14T01:12:02;96441.16;;;13.53;59.08
25855;BME280;13680;49.936;11.344;2023-06-14T01:14:31;96451.81;;;13.49;59.88
25855;BME280;13680;49.936;11.344;2023-06-14T01:16:58;96438.31;;;13.49;59.21
25855;BME280;13680;49.936;11.344;2023-06-14T01:19:25;96443.56;;;13.46;59.17
25855;BME280;13680;49.936;11.344;2023-06-14T01:21:55;96444.38;;;13.46;58.78
25855;BME280;13680;49.936;11.344;2023-06-14T01:24:21;96445.69;;;13.31;60.08
25855;BME280;13680;49.936;11.344;2023-06-14T01:26:53;96444.56;;;13.41;59.14
25855;BME280;13680;49.936;11.344;2023-06-14T01:29:22;96440.72;;;13.42;59.00
25855;BME280;13680;49.936;11.344;2023-06-14T01:31:49;96440.59;;;13.30;60.13
25855;BME280;13680;49.936;11.344;2023-06-14T01:34:15;96436.13;;;13.34;59.51
25855;BME280;13680;49.936;11.344;2023-06-14T01:36:41;96439.63;;;13.34;59.08
25855;BME280;13680;49.936;11.344;2023-06-14T01:39:11;96446.34;;;13.28;59.32
25855;BME280;13680;49.936;11.344;2023-06-14T01:41:38;96439.72;;;13.17;59.06
25855;BME280;13680;49.936;11.344;2023-06-14T01:44:04;96440.84;;;13.07;59.90
25855;BME280;13680;49.936;11.344;2023-06-14T01:46:30;96436.56;;;13.06;60.39
25855;BME280;13680;49.936;11.344;2023-06-14T01:48:55;96438.94;;;13.07;60.44
25855;BME280;13680;49.936;11.344;2023-06-14T01:51:20;96434.97;;;13.05;60.72
25855;BME280;13680;49.936;11.344;2023-06-14T01:53:46;96435.81;;;12.97;60.91
25855;BME280;13680;49.936;11.344;2023-06-14T01:56:12;96440.53;;;13.00;60.74
25855;BME280;13680;49.936;11.344;2023-06-14T01:58:37;96441.69;;;12.99;60.20
25855;BME280;13680;49.936;11.344;2023-06-14T02:01:03;96438.34;;;12.93;60.59
25855;BME280;13680;49.936;11.344;2023-06-14T02:03:28;96437.56;;;12.92;60.57
25855;BME280;13680;49.936;11.344;2023-06-14T02:05:54;96433.75;;;12.93;60.38
25855;BME280;13680;49.936;11.344;2023-06-14T02:08:20;96445.66;;;12.92;60.16
25855;BME280;13680;49.936;11.344;2023-06-14T02:10:46;96445.22;;;12.82;60.59
25855;BME280;13680;49.936;11.344;2023-06-14T02:13:11;96449.66;;;12.86;60.74
25855;BME280;13680;49.936;11.344;2023-06-14T02:15:37;96446.13;;;12.86;60.65
25855;BME280;13680;49.936;11.344;2023-06-14T02:18:03;96450.28;;;12.83;60.48
25855;BME280;13680;49.936;11.344;2023-06-14T02:20:28;96454.28;;;12.77;61.52
25855;BME280;13680;49.936;11.344;2023-06-14T02:22:54;96450.94;;;12.80;60.95
25855;BME280;13680;49.936;11.344;2023-06-14T02:25:20;96454.75;;;12.79;61.09
25855;BME280;13680;49.936;11.344;2023-06-14T02:27:45;96452.88;;;12.71;61.19
25855;BME280;13680;49.936;11.344;2023-06-14T02:30:11;96448.25;;;12.63;61.56
25855;BME280;13680;49.936;11.344;2023-06-14T02:32:36;96453.81;;;12.57;62.35
25855;BME280;13680;49.936;11.344;2023-06-14T02:35:02;96453.38;;;12.55;61.46
25855;BME280;13680;49.936;11.344;2023-06-14T02:37:28;96456.69;;;12.52;61.21
25855;BME280;13680;49.936;11.344;2023-06-14T02:39:53;96459.88;;;12.46;61.62
25855;BME280;13680;49.936;11.344;2023-06-14T02:42:19;96463.03;;;12.48;61.49
25855;BME280;13680;49.936;11.344;2023-06-14T02:44:44;96461.75;;;12.45;62.04
25855;BME280;13680;49.936;11.344;2023-06-14T02:47:11;96460.81;;;12.41;61.84
25855;BME280;13680;49.936;11.344;2023-06-14T02:49:37;96461.75;;;12.45;61.65
25855;BME280;13680;49.936;11.344;2023-06-14T02:52:02;96464.47;;;12.36;61.92
25855;BME280;13680;49.936;11.344;2023-06-14T02:54:27;96463.22;;;12.34;62.31
25855;BME280;13680;49.936;11.344;2023-06-14T02:56:53;96464.00;;;12.34;61.96
25855;BME280;13680;49.936;11.344;2023-06-14T02:59:18;96464.78;;;12.35;61.89
25855;BME280;13680;49.936;11.344;2023-06-14T03:01:44;96461.94;;;12.31;61.84
25855;BME280;13680;49.936;11.344;2023-06-14T03:04:10;96468.78;;;12.28;61.87
25855;BME280;13680;49.936;11.344;2023-06-14T03:06:36;96466.84;;;12.20;62.43
25855;BME280;13680;49.936;11.344;2023-06-14T03:09:02;96467.19;;;12.19;63.01
25855;BME280;13680;49.936;11.344;2023-06-14T03:11:30;96484.28;;;12.14;62.89
25855;BME280;13680;49.936;11.344;2023-06-14T03:13:55;96481.91;;;12.13;62.59
25855;BME280;13680;49.936;11.344;2023-06-14T03:16:21;96486.22;;;12.22;62.97
25855;BME280;13680;49.936;11.344;2023-06-14T03:18:52;96480.97;;;12.17;63.35
25855;BME280;13680;49.936;11.344;2023-06-14T03:21:18;96482.25;;;12.11;63.02
25855;BME280;13680;49.936;11.344;2023-06-14T03:23:44;96480.31;;;12.11;63.45
25855;BME280;13680;49.936;11.344;2023-06-14T03:26:10;96487.78;;;12.06;63.62
25855;BME280;13680;49.936;11.344;2023-06-14T03:28:39;96487.94;;;12.09;64.11
25855;BME280;13680;49.936;11.344;2023-06-14T03:31:05;96493.63;;;12.17;63.66
25855;BME280;13680;49.936;11.344;2023-06-14T03:33:30;96502.69;;;12.21;63.25
25855;BME280;13680;49.936;11.344;2023-06-14T03:35:56;96502.53;;;12.17;63.80
25855;BME280;13680;49.936;11.344;2023-06-14T03:38:22;96507.28;;;12.20;63.26
25855;BME280;13680;49.936;11.344;2023-06-14T03:40:47;96512.53;;;12.25;63.69
25855;BME280;13680;49.936;11.344;2023-06-14T03:43:12;96511.56;;;12.21;63.68
25855;BME280;13680;49.936;11.344;2023-06-14T03:45:38;96511.56;;;12.21;63.94
25855;BME280;13680;49.936;11.344;2023-06-14T03:48:03;96515.53;;;12.24;64.62
25855;BME280;13680;49.936;11.344;2023-06-14T03:50:31;96516.34;;;12.33;64.55
25855;BME280;13680;49.936;11.344;2023-06-14T03:52:57;96519.19;;;12.37;65.30
25855;BME280;13680;49.936;11.344;2023-06-14T03:55:22;96515.69;;;12.45;65.34
25855;BME280;13680;49.936;11.344;2023-06-14T03:57:50;96510.00;;;12.47;64.90
25855;BME280;13680;49.936;11.344;2023-06-14T04:00:16;96514.13;;;12.53;65.34
25855;BME280;13680;49.936;11.344;2023-06-14T04:02:41;96516.34;;;12.59;65.66
25855;BME280;13680;49.936;11.344;2023-06-14T04:05:07;96518.72;;;12.70;65.56
25855;BME280;13680;49.936;11.344;2023-06-14T04:07:34;96525.69;;;12.71;64.57
25855;BME280;13680;49.936;11.344;2023-06-14T04:10:06;96530.13;;;12.84;64.06
25855;BME280;13680;49.936;11.344;2023-06-14T04:12:33;96523.13;;;13.01;64.08
25855;BME280;13680;49.936;11.344;2023-06-14T04:14:58;96527.66;;;13.18;64.16
25855;BME280;13680;49.936;11.344;2023-06-14T04:17:24;96525.09;;;13.30;63.87
25855;BME280;13680;49.936;11.344;2023-06-14T04:19:49;96530.47;;;13.48;64.03
25855;BME280;13680;49.936;11.344;2023-06-14T04:22:14;96529.13;;;13.71;63.62
25855;BME280;13680;49.936;11.344;2023-06-14T04:24:40;96528.69;;;13.90;63.69
25855;BME280;13680;49.936;11.344;2023-06-14T04:27:07;96529.84;;;14.11;62.56
25855;BME280;13680;49.936;11.344;2023-06-14T04:29:33;96539.22;;;14.13;61.86
25855;BME280;13680;49.936;11.344;2023-06-14T04:31:58;96530.00;;;14.35;61.89
25855;BME280;13680;49.936;11.344;2023-06-14T04:34:25;96533.78;;;14.43;61.51
25855;BME280;13680;49.936;11.344;2023-06-14T04:36:55;96532.00;;;14.47;60.93
25855;BME280;13680;49.936;11.344;2023-06-14T04:39:22;96528.63;;;14.71;61.47
25855;BME280;13680;49.936;11.344;2023-06-14T04:41:47;96532.44;;;14.92;60.71
25855;BME280;13680;49.936;11.344;2023-06-14T04:44:13;96531.31;;;14.93;60.67
25855;BME280;13680;49.936;11.344;2023-06-14T04:46:41;96538.34;;;15.06;60.42
25855;BME280;13680;49.936;11.344;2023-06-14T04:49:17;96534.88;;;15.18;59.49
25855;BME280;13680;49.936;11.344;2023-06-14T04:51:44;96541.03;;;15.39;59.10
25855;BME280;13680;49.936;11.344;2023-06-14T04:54:10;96545.22;;;15.49;59.04
25855;BME280;13680;49.936;11.344;2023-06-14T04:56:42;96536.75;;;15.51;59.09
25855;BME280;13680;49.936;11.344;2023-06-14T04:59:08;96543.06;;;15.55;58.21
25855;BME280;13680;49.936;11.344;2023-06-14T05:01:34;96543.75;;;15.52;58.37
25855;BME280;13680;49.936;11.344;2023-06-14T05:03:59;96549.19;;;15.77;57.58
25855;BME280;13680;49.936;11.344;2023-06-14T05:06:25;96542.94;;;15.97;57.53
25855;BME280;13680;49.936;11.344;2023-06-14T05:08:53;96547.66;;;16.13;57.04
25855;BME280;13680;49.936;11.344;2023-06-14T05:11:18;96543.66;;;16.35;56.33
25855;BME280;13680;49.936;11.344;2023-06-14T05:13:44;96533.06;;;16.58;56.22
25855;BME280;13680;49.936;11.344;2023-06-14T05:16:10;96542.81;;;16.59;55.88
25855;BME280;13680;49.936;11.344;2023-06-14T05:18:36;96539.59;;;16.69;55.21
25855;BME280;13680;49.936;11.344;2023-06-14T05:21:02;96549.41;;;16.87;55.25
25855;BME280;13680;49.936;11.344;2023-06-14T05:23:29;96550.44;;;17.10;55.10
25855;BME280;13680;49.936;11.344;2023-06-14T05:25:55;96557.28;;;17.04;54.61
25855;BME280;13680;49.936;11.344;2023-06-14T05:28:20;96555.56;;;17.28;54.93
25855;BME280;13680;49.936;11.344;2023-06-14T05:30:45;96554.09;;;17.46;53.34
25855;BME280;13680;49.936;11.344;2023-06-14T05:33:11;96556.06;;;17.62;53.07
25855;BME280;13680;49.936;11.344;2023-06-14T05:35:36;96554.44;;;17.45;53.12
25855;BME280;13680;49.936;11.344;2023-06-14T05:38:03;96558.66;;;17.42;53.20
25855;BME280;13680;49.936;11.344;2023-06-14T05:40:29;96560.44;;;17.50;53.42
25855;BME280;13680;49.936;11.344;2023-06-14T05:42:54;96563.00;;;17.59;52.68
25855;BME280;13680;49.936;11.344;2023-06-14T05:45:20;96564.38;;;17.53;52.04
25855;BME280;13680;49.936;11.344;2023-06-14T05:47:45;96565.25;;;17.57;52.27
25855;BME280;13680;49.936;11.344;2023-06-14T05:50:11;96565.00;;;17.78;52.32
25855;BME280;13680;49.936;11.344;2023-06-14T05:52:36;96568.25;;;18.00;51.18
25855;BME280;13680;49.936;11.344;2023-06-14T05:55:03;96577.00;;;17.61;52.61
25855;BME280;13680;49.936;11.344;2023-06-14T05:57:28;96568.31;;;17.72;51.94
25855;BME280;13680;49.936;11.344;2023-06-14T05:59:54;96573.28;;;17.98;51.54
25855;BME280;13680;49.936;11.344;2023-06-14T06:02:20;96566.84;;;18.22;50.47
25855;BME280;13680;49.936;11.344;2023-06-14T06:04:45;96571.97;;;18.08;51.30
25855;BME280;13680;49.936;11.344;2023-06-14T06:07:10;96570.53;;;18.49;49.95
25855;BME280;13680;49.936;11.344;2023-06-14T06:09:36;96580.19;;;18.63;49.31
25855;BME280;13680;49.936;11.344;2023-06-14T06:12:01;96582.78;;;18.40;50.38
25855;BME280;13680;49.936;11.344;2023-06-14T06:14:26;96576.22;;;18.60;49.31
25855;BME280;13680;49.936;11.344;2023-06-14T06:16:53;96579.03;;;18.64;50.02
25855;BME280;13680;49.936;11.344;2023-06-14T06:19:18;96574.81;;;18.31;50.81
25855;BME280;13680;49.936;11.344;2023-06-14T06:21:44;96572.34;;;18.97;49.39
25855;BME280;13680;49.936;11.344;2023-06-14T06:24:09;96572.19;;;18.90;48.41
25855;BME280;13680;49.936;11.344;2023-06-14T06:26:34;96575.50;;;18.99;48.70
25855;BME280;13680;49.936;11.344;2023-06-14T06:29:00;96578.91;;;18.41;50.16
25855;BME280;13680;49.936;11.344;2023-06-14T06:31:25;96573.25;;;18.49;49.98
25855;BME280;13680;49.936;11.344;2023-06-14T06:33:52;96578.59;;;18.81;48.29
25855;BME280;13680;49.936;11.344;2023-06-14T06:36:19;96566.94;;;19.20;47.91
25855;BME280;13680;49.936;11.344;2023-06-14T06:38:45;96578.13;;;19.35;47.21
25855;BME280;13680;49.936;11.344;2023-06-14T06:41:10;96580.66;;;19.24;46.64
25855;BME280;13680;49.936;11.344;2023-06-14T06:43:35;96571.03;;;19.10;47.61
25855;BME280;13680;49.936;11.344;2023-06-14T06:46:01;96590.06;;;19.50;46.17
25855;BME280;13680;49.936;11.344;2023-06-14T06:48:26;96588.72;;;19.40;46.75
25855;BME280;13680;49.936;11.344;2023-06-14T06:50:51;96582.88;;;19.61;47.21
25855;BME280;13680;49.936;11.344;2023-06-14T06:53:17;96584.13;;;19.87;45.25
25855;BME280;13680;49.936;11.344;2023-06-14T06:55:44;96590.19;;;19.57;45.15
25855;BME280;13680;49.936;11.344;2023-06-14T06:58:09;96600.69;;;19.55;45.78
25855;BME280;13680;49.936;11.344;2023-06-14T07:00:35;96592.06;;;19.95;44.56
25855;BME280;13680;49.936;11.344;2023-06-14T07:03:00;96598.91;;;19.86;45.39
25855;BME280;13680;49.936;11.344;2023-06-14T07:05:26;96593.19;;;20.44;43.09
25855;BME280;13680;49.936;11.344;2023-06-14T07:07:51;96600.53;;;20.67;43.96
25855;BME280;13680;49.936;11.344;2023-06-14T07:10:17;96591.66;;;21.04;43.29
25855;BME280;13680;49.936;11.344;2023-06-14T07:12:43;96603.41;;;20.74;42.76
25855;BME280;13680;49.936;11.344;2023-06-14T07:15:09;96603.47;;;20.82;43.20
25855;BME280;13680;49.936;11.344;2023-06-14T07:17:35;96610.72;;;20.70;42.98
25855;BME280;13680;49.936;11.344;2023-06-14T07:20:02;96605.81;;;20.83;41.52
25855;BME280;13680;49.936;11.344;2023-06-14T07:22:40;96601.34;;;20.98;42.43
25855;BME280;13680;49.936;11.344;2023-06-14T07:25:10;96596.41;;;20.81;42.46
25855;BME280;13680;49.936;11.344;2023-06-14T07:27:39;96595.50;;;21.00;41.69
25855;BME280;13680;49.936;11.344;2023-06-14T07:30:06;96599.56;;;21.51;41.60
25855;BME280;13680;49.936;11.344;2023-06-14T07:32:31;96611.41;;;21.55;41.91
25855;BME280;13680;49.936;11.344;2023-06-14T07:34:57;96612.78;;;21.41;43.31
25855;BME280;13680;49.936;11.344;2023-06-14T07:37:22;96609.22;;;21.03;40.70
25855;BME280;13680;49.936;11.344;2023-06-14T07:39:48;96601.31;;;21.63;40.14
25855;BME280;13680;49.936;11.344;2023-06-14T07:42:14;96609.47;;;21.59;41.52
25855;BME280;13680;49.936;11.344;2023-06-14T07:44:39;96599.72;;;21.62;41.06
25855;BME280;13680;49.936;11.344;2023-06-14T07:47:04;96602.94;;;21.71;40.92
25855;BME280;13680;49.936;11.344;2023-06-14T07:49:30;96598.59;;;20.98;42.21
25855;BME280;13680;49.936;11.344;2023-06-14T07:51:55;96609.66;;;21.43;39.21
25855;BME280;13680;49.936;11.344;2023-06-14T07:54:20;96614.94;;;21.25;39.76
25855;BME280;13680;49.936;11.344;2023-06-14T07:56:50;96610.13;;;21.86;38.44
25855;BME280;13680;49.936;11.344;2023-06-14T07:59:17;96612.25;;;21.29;40.13
25855;BME280;13680;49.936;11.344;2023-06-14T08:01:42;96608.97;;;21.87;39.21
25855;BME280;13680;49.936;11.344;2023-06-14T08:04:12;96615.13;;;21.43;39.90
25855;BME280;13680;49.936;11.344;2023-06-14T08:06:38;96611.81;;;21.98;38.82
25855;BME280;13680;49.936;11.344;2023-06-14T08:09:04;96614.19;;;21.62;39.89
25855;BME280;13680;49.936;11.344;2023-06-14T08:11:29;96606.69;;;22.42;38.28
25855;BME280;13680;49.936;11.344;2023-06-14T08:13:55;96616.22;;;22.62;39.07
25855;BME280;13680;49.936;11.344;2023-06-14T08:16:20;96603.94;;;23.15;36.54
25855;BME280;13680;49.936;11.344;2023-06-14T08:18:45;96619.06;;;22.84;37.07
25855;BME280;13680;49.936;11.344;2023-06-14T08:21:11;96605.47;;;23.05;37.01
25855;BME280;13680;49.936;11.344;2023-06-14T08:23:36;96618.88;;;23.25;37.05
25855;BME280;13680;49.936;11.344;2023-06-14T08:26:01;96611.44;;;23.29;36.02
25855;BME280;13680;49.936;11.344;2023-06-14T08:28:29;96604.41;;;23.35;36.29
25855;BME280;13680;49.936;11.344;2023-06-14T08:30:54;96607.22;;;23.72;35.65
25855;BME280;13680;49.936;11.344;2023-06-14T08:33:20;96606.69;;;23.15;36.33
25855;BME280;13680;49.936;11.344;2023-06-14T08:35:46;96617.16;;;22.95;37.22
25855;BME280;13680;49.936;11.344;2023-06-14T08:38:11;96603.91;;;23.12;36.81
25855;BME280;13680;49.936;11.344;2023-06-14T08:40:37;96607.41;;;23.05;36.09
25855;BME280;13680;49.936;11.344;2023-06-14T08:43:04;96612.25;;;23.41;36.70
25855;BME280;13680;49.936;11.344;2023-06-14T08:45:29;96598.28;;;23.96;34.84
25855;BME280;13680;49.936;11.344;2023-06-14T08:47:55;96597.88;;;24.23;34.52
25855;BME280;13680;49.936;11.344;2023-06-14T08:50:25;96590.78;;;23.86;35.82
25855;BME280;13680;49.936;11.344;2023-06-14T08:53:02;96598.25;;;23.93;35.45
25855;BME280;13680;49.936;11.344;2023-06-14T08:55:29;96605.69;;;24.43;35.32
25855;BME280;13680;49.936;11.344;2023-06-14T08:57:55;96601.38;;;24.56;34.38
25855;BME280;13680;49.936;11.344;2023-06-14T09:00:25;96599.44;;;24.42;35.44
25855;BME280;13680;49.936;11.344;2023-06-14T09:02:52;96604.88;;;24.60;34.82
25855;BME280;13680;49.936;11.344;2023-06-14T09:05:23;96599.75;;;24.84;33.29
25855;BME280;13680;49.936;11.344;2023-06-14T09:07:49;96592.34;;;24.66;33.38
25855;BME280;13680;49.936;11.344;2023-06-14T09:10:15;96596.66;;;24.64;34.30
25855;BME280;13680;49.936;11.344;2023-06-14T09:12:41;96592.16;;;25.17;32.49
25855;BME280;13680;49.936;11.344;2023-06-14T09:15:07;96593.91;;;24.60;33.12
25855;BME280;13680;49.936;11.344;2023-06-14T09:17:37;96604.72;;;25.18;31.73
25855;BME280;13680;49.936;11.344;2023-06-14T09:20:04;96605.63;;;24.93;33.20
25855;BME280;13680;49.936;11.344;2023-06-14T09:22:35;96602.53;;;24.55;33.55
25855;BME280;13680;49.936;11.344;2023-06-14T09:25:01;96603.34;;;24.45;33.74
25855;BME280;13680;49.936;11.344;2023-06-14T09:27:27;96610.00;;;24.73;32.09
25855;BME280;13680;49.936;11.344;2023-06-14T09:29:52;96605.28;;;24.70;31.11
25855;BME280;13680;49.936;11.344;2023-06-14T09:32:18;96615.81;;;24.96;32.41
25855;BME280;13680;49.936;11.344;2023-06-14T09:34:45;96610.28;;;25.11;31.45
25855;BME280;13680;49.936;11.344;2023-06-14T09:37:10;96609.16;;;25.79;31.47
25855;BME280;13680;49.936;11.344;2023-06-14T09:39:35;96607.16;;;26.36;29.97
25855;BME280;13680;49.936;11.344;2023-06-14T09:42:01;96601.75;;;27.05;28.79
25855;BME280;13680;49.936;11.344;2023-06-14T09:44:43;96591.06;;;27.69;26.58
25855;BME280;13680;49.936;11.344;2023-06-14T09:47:08;96592.00;;;27.58;28.07
25855;BME280;13680;49.936;11.344;2023-06-14T09:49:34;96592.41;;;28.12;27.40
25855;BME280;13680;49.936;11.344;2023-06-14T09:51:59;96599.66;;;27.74;26.44
25855;BME280;13680;49.936;11.344;2023-06-14T09:54:25;96609.56;;;27.44;26.99
25855;BME280;13680;49.936;11.344;2023-06-14T09:56:52;96615.97;;;26.20;27.94
25855;BME280;13680;49.936;11.344;2023-06-14T09:59:20;96610.56;;;26.02;28.66
25855;BME280;13680;49.936;11.344;2023-06-14T10:01:47;96604.47;;;25.76;28.67
25855;BME280;13680;49.936;11.344;2023-06-14T10:04:14;96612.56;;;25.97;29.22
25855;BME280;13680;49.936;11.344;2023-06-14T10:06:43;96617.94;;;25.59;28.88
25855;BME280;13680;49.936;11.344;2023-06-14T10:09:10;96599.97;;;25.96;30.10
25855;BME280;13680;49.936;11.344;2023-06-14T10:11:36;96597.56;;;26.51;29.16
25855;BME280;13680;49.936;11.344;2023-06-14T10:14:04;96607.91;;;26.43;28.09
25855;BME280;13680;49.936;11.344;2023-06-14T10:16:52;96609.41;;;25.28;28.56
25855;BME280;13680;49.936;11.344;2023-06-14T10:19:25;96609.31;;;25.50;28.44
25855;BME280;13680;49.936;11.344;2023-06-14T10:22:04;96608.44;;;25.68;28.32
25855;BME280;13680;49.936;11.344;2023-06-14T10:24:41;96608.41;;;25.71;28.22
25855;BME280;13680;49.936;11.344;2023-06-14T10:27:08;96602.84;;;25.00;28.90
25855;BME280;13680;49.936;11.344;2023-06-14T10:32:21;96592.88;;;25.28;29.15
25855;BME280;13680;49.936;11.344;2023-06-14T10:34:59;96606.28;;;25.93;28.03
25855;BME280;13680;49.936;11.344;2023-06-14T10:37:25;96602.66;;;26.04;27.18
25855;BME280;13680;49.936;11.344;2023-06-14T10:39:50;96596.03;;;27.19;25.90
25855;BME280;13680;49.936;11.344;2023-06-14T10:42:16;96598.81;;;27.50;26.47
25855;BME280;13680;49.936;11.344;2023-06-14T10:44:51;96601.88;;;27.25;25.86
25855;BME280;13680;49.936;11.344;2023-06-14T10:50:22;96591.34;;;28.02;25.55
25855;BME280;13680;49.936;11.344;2023-06-14T10:52:53;96591.78;;;27.73;24.42
25855;BME280;13680;49.936;11.344;2023-06-14T10:55:18;96591.97;;;28.61;24.61
25855;BME280;13680;49.936;11.344;2023-06-14T11:00:11;96581.66;;;29.62;24.29
25855;BME280;13680;49.936;11.344;2023-06-14T11:08:18;96584.88;;;29.77;21.68
25855;BME280;13680;49.936;11.344;2023-06-14T11:10:44;96593.28;;;28.76;23.00
25855;BME280;13680;49.936;11.344;2023-06-14T11:13:13;96588.16;;;28.07;24.21
25855;BME280;13680;49.936;11.344;2023-06-14T11:15:44;96582.78;;;28.20;24.02
25855;BME280;13680;49.936;11.344;2023-06-14T11:18:11;96600.84;;;27.15;25.22
25855;BME280;13680;49.936;11.344;2023-06-14T11:20:37;96600.13;;;27.69;24.78
25855;BME280;13680;49.936;11.344;2023-06-14T11:23:03;96586.22;;;28.28;23.77
25855;BME280;13680;49.936;11.344;2023-06-14T11:25:29;96581.59;;;28.88;23.43
25855;BME280;13680;49.936;11.344;2023-06-14T11:27:55;96581.94;;;27.99;24.40
25855;BME280;13680;49.936;11.344;2023-06-14T11:30:21;96587.09;;;29.09;22.81
25855;BME280;13680;49.936;11.344;2023-06-14T11:32:48;96579.03;;;28.98;22.57
25855;BME280;13680;49.936;11.344;2023-06-14T11:35:14;96585.25;;;29.02;21.71
25855;BME280;13680;49.936;11.344;2023-06-14T11:37:40;96579.09;;;29.34;22.27
25855;BME280;13680;49.936;11.344;2023-06-14T11:40:08;96573.44;;;28.57;22.95
25855;BME280;13680;49.936;11.344;2023-06-14T11:42:40;96577.94;;;28.28;24.35
25855;BME280;13680;49.936;11.344;2023-06-14T11:45:09;96576.72;;;28.05;24.28
25855;BME280;13680;49.936;11.344;2023-06-14T11:47:36;96567.75;;;28.88;23.45
25855;BME280;13680;49.936;11.344;2023-06-14T11:50:03;96575.84;;;28.55;24.59
25855;BME280;13680;49.936;11.344;2023-06-14T11:52:28;96573.41;;;29.01;23.06
25855;BME280;13680;49.936;11.344;2023-06-14T11:54:54;96570.75;;;29.71;22.83
25855;BME280;13680;49.936;11.344;2023-06-14T11:57:20;96571.78;;;30.43;23.25
25855;BME280;13680;49.936;11.344;2023-06-14T11:59:46;96564.63;;;30.75;21.35
25855;BME280;13680;49.936;11.344;2023-06-14T12:02:15;96567.28;;;30.33;21.87
25855;BME280;13680;49.936;11.344;2023-06-14T12:04:42;96560.13;;;30.94;20.24
25855;BME280;13680;49.936;11.344;2023-06-14T12:07:11;96558.38;;;29.76;21.42
25855;BME280;13680;49.936;11.344;2023-06-14T12:12:24;96570.50;;;28.68;23.01
25855;BME280;13680;49.936;11.344;2023-06-14T12:14:51;96578.28;;;28.06;23.87
25855;BME280;13680;49.936;11.344;2023-06-14T12:17:17;96576.25;;;27.24;24.59
25855;BME280;13680;49.936;11.344;2023-06-14T12:19:44;96570.56;;;27.39;24.59
25855;BME280;13680;49.936;11.344;2023-06-14T12:22:10;96563.72;;;28.25;24.66
25855;BME280;13680;49.936;11.344;2023-06-14T12:24:35;96570.94;;;27.41;25.96
25855;BME280;13680;49.936;11.344;2023-06-14T12:27:01;96553.34;;;28.77;23.81
25855;BME280;13680;49.936;11.344;2023-06-14T12:29:30;96564.59;;;28.66;24.18
25855;BME280;13680;49.936;11.344;2023-06-14T12:31:56;96564.22;;;29.25;23.17
25855;BME280;13680;49.936;11.344;2023-06-14T12:34:27;96561.63;;;29.54;22.95
25855;BME280;13680;49.936;11.344;2023-06-14T12:36:53;96569.50;;;28.99;23.27
25855;BME280;13680;49.936;11.344;2023-06-14T12:39:19;96570.84;;;27.48;24.59
25855;BME280;13680;49.936;11.344;2023-06-14T12:41:45;96577.81;;;27.25;25.65
25855;BME280;13680;49.936;11.344;2023-06-14T12:44:13;96582.47;;;27.32;25.06
25855;BME280;13680;49.936;11.344;2023-06-14T12:46:42;96569.94;;;27.82;25.70
25855;BME280;13680;49.936;11.344;2023-06-14T12:49:10;96580.00;;;27.41;25.44
25855;BME280;13680;49.936;11.344;2023-06-14T12:51:36;96588.66;;;27.43;25.77
25855;BME280;13680;49.936;11.344;2023-06-14T12:54:01;96565.81;;;27.94;24.75
25855;BME280;13680;49.936;11.344;2023-06-14T12:56:26;96575.72;;;27.91;24.75
25855;BME280;13680;49.936;11.344;2023-06-14T12:58:52;96574.19;;;28.14;24.01
25855;BME280;13680;49.936;11.344;2023-06-14T13:01:18;96579.22;;;27.96;23.23
25855;BME280;13680;49.936;11.344;2023-06-14T13:03:43;96578.69;;;28.28;23.88